Time;durP1;ratioP1;P1;durP2;ratioP2;P2;SDS_P1;SDS_P2;PMS_P1;PMS_P2;Temp;Humidity;BMP_temperature;BMP_pressure;BME280_temperature;BME280_humidity;BME280_pressure;Samples;Min_cycle;Max_cycle;Signal;HPM_P1;HPM_P2
2021/10/25 12:10:00;;;;;;;23.20;12.68;;;12.10;99.90;;;;;;12018863;27;20150;-87
2021/10/25 12:15:54;;;;;;;22.33;12.88;;;12.60;99.90;;;;;;12045257;27;20052;-86
2021/10/25 12:21:44;;;;;;;23.10;11.85;;;13.40;99.90;;;;;;12029934;27;20133;-86
2021/10/25 12:34:27;;;;;;;21.95;11.68;;;14.20;99.90;;;;;;12025781;28;20061;-86
2021/10/25 12:40:19;;;;;;;21.80;11.85;;;14.50;99.90;;;;;;12033402;28;20080;-87
2021/10/25 12:46:14;;;;;;;18.38;9.85;;;14.60;99.90;;;;;;12034274;27;20078;-86
2021/10/25 12:52:26;;;;;;;19.75;9.48;;;14.70;99.90;;;;;;12053399;28;20099;-87
2021/10/25 12:58:13;;;;;;;16.80;7.65;;;15.00;99.90;;;;;;11979923;28;20140;-87
2021/10/25 13:04:04;;;;;;;17.35;7.90;;;15.30;99.90;;;;;;12057926;27;20537;-85
2021/10/25 13:09:52;;;;;;;17.08;7.45;;;15.40;99.90;;;;;;12055627;28;20052;-85
2021/10/25 13:15:56;;;;;;;14.25;6.47;;;15.30;99.90;;;;;;12063221;28;20056;-78
2021/10/25 13:21:46;;;;;;;13.65;7.00;;;15.20;99.90;;;;;;11988473;28;20075;-89
2021/10/25 13:27:33;;;;;;;13.73;6.40;;;15.30;99.90;;;;;;12024417;28;20055;-88
2021/10/25 13:33:20;;;;;;;15.57;6.07;;;15.40;99.90;;;;;;12031747;28;20431;-87
2021/10/25 13:39:10;;;;;;;12.60;5.53;;;15.40;99.90;;;;;;11996050;28;20053;-86
2021/10/25 13:45:00;;;;;;;10.38;4.55;;;15.50;99.90;;;;;;11982981;28;20053;-85
2021/10/25 13:50:47;;;;;;;11.75;5.00;;;15.50;99.90;;;;;;11975327;28;20101;-86
2021/10/25 13:56:36;;;;;;;8.45;4.28;;;15.60;99.90;;;;;;11990005;28;20109;-85
2021/10/25 14:02:28;;;;;;;10.70;4.05;;;15.80;99.90;;;;;;12012034;28;20053;-85
2021/10/25 14:08:16;;;;;;;16.75;4.32;;;15.80;99.90;;;;;;11979947;28;20484;-85
2021/10/25 14:14:11;;;;;;;12.45;4.35;;;15.80;99.90;;;;;;11982467;28;20060;-84
2021/10/25 14:20:05;;;;;;;13.90;4.20;;;15.80;99.90;;;;;;12039285;28;20064;-82
2021/10/25 14:25:52;;;;;;;10.00;3.42;;;15.70;99.90;;;;;;12007526;28;20061;-83
2021/10/25 14:31:44;;;;;;;8.45;2.88;;;15.40;99.90;;;;;;11993954;28;20057;-81
2021/10/25 14:37:32;;;;;;;9.68;2.88;;;15.50;99.90;;;;;;12020202;28;20048;-81
2021/10/25 14:43:29;;;;;;;10.20;3.20;;;15.40;99.90;;;;;;12000484;28;21049;-84
2021/10/25 14:53:19;;;;;;;12.98;3.25;;;15.40;99.90;;;;;;12020355;28;20135;-82
2021/10/25 14:55:36;;;;;;;11.43;3.95;;;15.60;99.90;;;;;;12013025;28;20041;-82
2021/10/25 15:01:24;;;;;;;13.20;4.20;;;15.50;99.90;;;;;;12016897;28;20061;-81
2021/10/25 15:07:20;;;;;;;12.63;4.65;;;15.50;99.90;;;;;;11992135;28;20049;-83
2021/10/25 15:13:07;;;;;;;15.02;4.70;;;15.70;99.90;;;;;;11966595;28;20041;-84
2021/10/25 15:19:09;;;;;;;17.58;6.22;;;15.70;99.90;;;;;;12021046;28;20067;-82
2021/10/25 15:25:23;;;;;;;15.88;4.80;;;15.90;99.90;;;;;;11943550;28;20049;-81
2021/10/25 15:31:16;;;;;;;12.97;4.57;;;16.00;99.90;;;;;;11942535;27;20137;-82
2021/10/25 15:37:07;;;;;;;16.08;4.63;;;15.90;99.90;;;;;;11953492;28;20546;-80
2021/10/25 15:42:58;;;;;;;15.15;4.35;;;15.90;99.90;;;;;;11973553;28;20056;-79
2021/10/25 15:48:45;;;;;;;10.82;4.13;;;15.60;99.90;;;;;;11974614;28;20053;-80
2021/10/25 15:54:33;;;;;;;14.00;5.38;;;15.60;99.90;;;;;;11962529;28;20081;-81
2021/10/25 16:00:31;;;;;;;16.15;4.90;;;15.60;99.90;;;;;;11980036;28;20141;-81
2021/10/25 16:06:19;;;;;;;11.80;5.50;;;15.40;99.90;;;;;;11962487;28;20041;-82
2021/10/25 16:12:07;;;;;;;16.35;5.03;;;15.30;99.90;;;;;;11975036;28;20084;-82
2021/10/25 16:17:55;;;;;;;20.83;5.53;;;15.10;99.90;;;;;;11976071;28;20056;-83
2021/10/25 16:23:42;;;;;;;16.13;5.80;;;14.90;99.90;;;;;;12008688;28;20849;-83
2021/10/25 16:29:29;;;;;;;17.40;7.28;;;14.80;99.90;;;;;;12022474;28;20415;-81
